Terminal Aerodrome Forecast
Issued by NWS

Home | Current Version | Previous Version | Text Only | Print | Product List | Glossary On
Versions: 1 2 3 4 5 6 7 8 9 10 11 12 13 14 15 16 17 18 19
230
FTUS41 KBOX 221741 RRA
TAFHYA
TAF
KHYA 221741Z 2218/2318 20007KT P6SM FEW019
     FM222100 24011G20KT P6SM FEW070
     FM230000 28009KT P6SM SCT250
     FM230500 32010G22KT P6SM FEW250
     FM231700 28011G18KT P6SM SKC=

USA.gov is the U.S. government's official web portal to all federal, state and local government web resources and services.